sensor_id;sensor_type;location;lat;lon;timestamp;pressure;altitude;pressure_sealevel;temperature;humidity
70407;BME280;57821;52.202;0.154;2022-12-29T00:00:13;99265.47;;;9.22;83.16
70407;BME280;57821;52.202;0.154;2022-12-29T00:02:40;99262.22;;;9.14;83.74
70407;BME280;57821;52.202;0.154;2022-12-29T00:05:07;99265.81;;;9.06;83.74
70407;BME280;57821;52.202;0.154;2022-12-29T00:07:33;99258.19;;;8.99;83.93
70407;BME280;57821;52.202;0.154;2022-12-29T00:10:00;99254.00;;;8.93;84.95
70407;BME280;57821;52.202;0.154;2022-12-29T00:12:27;99244.63;;;8.89;85.38
70407;BME280;57821;52.202;0.154;2022-12-29T00:14:53;99242.09;;;8.86;85.66
70407;BME280;57821;52.202;0.154;2022-12-29T00:17:20;99248.19;;;8.84;85.97
70407;BME280;57821;52.202;0.154;2022-12-29T00:19:46;99251.66;;;8.83;86.37
70407;BME280;57821;52.202;0.154;2022-12-29T00:22:13;99249.91;;;8.83;86.38
70407;BME280;57821;52.202;0.154;2022-12-29T00:24:40;99259.38;;;8.84;86.40
70407;BME280;57821;52.202;0.154;2022-12-29T00:29:33;99240.31;;;8.88;85.87
70407;BME280;57821;52.202;0.154;2022-12-29T00:32:00;99242.91;;;8.88;85.80
70407;BME280;57821;52.202;0.154;2022-12-29T00:34:26;99255.84;;;8.88;85.58
70407;BME280;57821;52.202;0.154;2022-12-29T00:36:53;99248.91;;;8.90;85.31
70407;BME280;57821;52.202;0.154;2022-12-29T00:39:19;99253.16;;;8.93;85.07
70407;BME280;57821;52.202;0.154;2022-12-29T00:41:47;99245.38;;;8.94;85.00
70407;BME280;57821;52.202;0.154;2022-12-29T00:44:14;99241.06;;;8.95;84.49
70407;BME280;57821;52.202;0.154;2022-12-29T00:46:41;99245.28;;;8.97;84.65
70407;BME280;57821;52.202;0.154;2022-12-29T00:49:11;99239.34;;;8.94;84.77
70407;BME280;57821;52.202;0.154;2022-12-29T00:51:38;99240.94;;;9.01;84.23
70407;BME280;57821;52.202;0.154;2022-12-29T00:54:04;99236.59;;;9.01;84.16
70407;BME280;57821;52.202;0.154;2022-12-29T00:56:31;99229.66;;;9.03;83.99
70407;BME280;57821;52.202;0.154;2022-12-29T00:59:02;99221.97;;;9.00;84.25
70407;BME280;57821;52.202;0.154;2022-12-29T01:01:29;99227.06;;;9.03;83.77
70407;BME280;57821;52.202;0.154;2022-12-29T01:03:55;99214.13;;;9.05;83.81
70407;BME280;57821;52.202;0.154;2022-12-29T01:06:29;99223.59;;;9.04;83.41
70407;BME280;57821;52.202;0.154;2022-12-29T01:08:55;99208.94;;;9.05;83.71
70407;BME280;57821;52.202;0.154;2022-12-29T01:11:22;99214.09;;;9.06;83.44
70407;BME280;57821;52.202;0.154;2022-12-29T01:13:48;99214.09;;;9.06;83.30
70407;BME280;57821;52.202;0.154;2022-12-29T01:16:15;99195.13;;;9.07;83.62
70407;BME280;57821;52.202;0.154;2022-12-29T01:18:43;99197.63;;;9.09;83.38
70407;BME280;57821;52.202;0.154;2022-12-29T01:21:10;99186.44;;;9.08;83.33
70407;BME280;57821;52.202;0.154;2022-12-29T01:23:36;99198.56;;;9.08;83.00
70407;BME280;57821;52.202;0.154;2022-12-29T01:26:09;99191.69;;;9.07;82.57
70407;BME280;57821;52.202;0.154;2022-12-29T01:28:36;99201.16;;;9.06;82.86
70407;BME280;57821;52.202;0.154;2022-12-29T01:31:03;99177.91;;;9.06;82.69
70407;BME280;57821;52.202;0.154;2022-12-29T01:33:30;99176.19;;;9.05;82.19
70407;BME280;57821;52.202;0.154;2022-12-29T01:36:07;99181.44;;;9.02;81.78
70407;BME280;57821;52.202;0.154;2022-12-29T01:38:36;99190.94;;;9.00;81.90
70407;BME280;57821;52.202;0.154;2022-12-29T01:41:03;99200.41;;;9.01;81.75
70407;BME280;57821;52.202;0.154;2022-12-29T01:43:48;99194.41;;;8.99;82.20
70407;BME280;57821;52.202;0.154;2022-12-29T01:46:38;99193.59;;;8.97;81.55
70407;BME280;57821;52.202;0.154;2022-12-29T01:49:18;99200.53;;;8.95;81.12
70407;BME280;57821;52.202;0.154;2022-12-29T01:51:49;99186.94;;;8.87;81.76
70407;BME280;57821;52.202;0.154;2022-12-29T01:54:26;99188.56;;;8.91;81.88
70407;BME280;57821;52.202;0.154;2022-12-29T01:56:57;99199.75;;;8.92;81.91
70407;BME280;57821;52.202;0.154;2022-12-29T01:59:30;99199.84;;;8.87;81.79
70407;BME280;57821;52.202;0.154;2022-12-29T02:01:57;99208.41;;;8.91;82.02
70407;BME280;57821;52.202;0.154;2022-12-29T02:04:26;99199.94;;;8.84;82.13
70407;BME280;57821;52.202;0.154;2022-12-29T02:06:57;99199.09;;;8.82;81.88
70407;BME280;57821;52.202;0.154;2022-12-29T02:09:24;99204.19;;;8.85;81.78
70407;BME280;57821;52.202;0.154;2022-12-29T02:11:51;99209.34;;;8.85;82.02
70407;BME280;57821;52.202;0.154;2022-12-29T02:14:18;99208.47;;;8.86;82.05
70407;BME280;57821;52.202;0.154;2022-12-29T02:16:49;99210.19;;;8.87;81.91
70407;BME280;57821;52.202;0.154;2022-12-29T02:25:51;99232.59;;;8.87;80.88
70407;BME280;57821;52.202;0.154;2022-12-29T02:32:01;99230.88;;;8.87;81.11
70407;BME280;57821;52.202;0.154;2022-12-29T02:34:47;99224.94;;;8.82;80.77
70407;BME280;57821;52.202;0.154;2022-12-29T02:39:58;99230.09;;;8.84;80.43
70407;BME280;57821;52.202;0.154;2022-12-29T02:42:43;99221.34;;;8.91;80.28
70407;BME280;57821;52.202;0.154;2022-12-29T02:45:27;99222.16;;;8.91;80.00
70407;BME280;57821;52.202;0.154;2022-12-29T02:48:07;99237.72;;;8.90;80.56
70407;BME280;57821;52.202;0.154;2022-12-29T02:50:47;99230.94;;;8.84;80.44
70407;BME280;57821;52.202;0.154;2022-12-29T02:53:18;99221.34;;;8.89;79.84
70407;BME280;57821;52.202;0.154;2022-12-29T02:55:49;99215.34;;;8.89;79.89
70407;BME280;57821;52.202;0.154;2022-12-29T02:58:19;99207.69;;;8.84;79.96
70407;BME280;57821;52.202;0.154;2022-12-29T03:09:02;99218.06;;;8.81;80.02
70407;BME280;57821;52.202;0.154;2022-12-29T03:15:03;99208.56;;;8.83;80.20
70407;BME280;57821;52.202;0.154;2022-12-29T03:20:20;99193.94;;;8.82;80.07
70407;BME280;57821;52.202;0.154;2022-12-29T03:22:57;99201.69;;;8.82;80.01
70407;BME280;57821;52.202;0.154;2022-12-29T03:25:32;99177.69;;;8.77;79.48
70407;BME280;57821;52.202;0.154;2022-12-29T03:28:09;99182.91;;;8.74;79.32
70407;BME280;57821;52.202;0.154;2022-12-29T03:30:42;99178.44;;;8.82;79.78
70407;BME280;57821;52.202;0.154;2022-12-29T03:33:14;99175.91;;;8.79;79.29
70407;BME280;57821;52.202;0.154;2022-12-29T03:35:46;99187.06;;;8.81;79.70
70407;BME280;57821;52.202;0.154;2022-12-29T03:38:26;99189.59;;;8.84;79.17
70407;BME280;57821;52.202;0.154;2022-12-29T03:40:59;99187.00;;;8.84;79.47
70407;BME280;57821;52.202;0.154;2022-12-29T03:43:29;99179.19;;;8.86;79.21
70407;BME280;57821;52.202;0.154;2022-12-29T03:45:56;99171.44;;;8.86;78.64
70407;BME280;57821;52.202;0.154;2022-12-29T03:48:23;99183.50;;;8.87;79.24
70407;BME280;57821;52.202;0.154;2022-12-29T03:50:52;99171.41;;;8.87;79.06
70407;BME280;57821;52.202;0.154;2022-12-29T03:53:19;99165.38;;;8.88;78.90
70407;BME280;57821;52.202;0.154;2022-12-29T03:55:46;99173.97;;;8.89;78.54
70407;BME280;57821;52.202;0.154;2022-12-29T03:58:13;99161.94;;;8.88;78.37
70407;BME280;57821;52.202;0.154;2022-12-29T04:01:02;99161.03;;;8.90;78.35
70407;BME280;57821;52.202;0.154;2022-12-29T04:03:32;99166.13;;;8.93;78.95
70407;BME280;57821;52.202;0.154;2022-12-29T04:06:00;99151.47;;;8.94;78.48
70407;BME280;57821;52.202;0.154;2022-12-29T04:08:32;99174.69;;;8.95;78.32
70407;BME280;57821;52.202;0.154;2022-12-29T04:10:59;99160.91;;;8.96;78.31
70407;BME280;57821;52.202;0.154;2022-12-29T04:13:26;99172.03;;;8.98;78.43
70407;BME280;57821;52.202;0.154;2022-12-29T04:15:53;99165.16;;;8.97;78.26
70407;BME280;57821;52.202;0.154;2022-12-29T04:18:19;99171.19;;;8.98;78.70
70407;BME280;57821;52.202;0.154;2022-12-29T04:20:46;99171.97;;;9.01;78.73
70407;BME280;57821;52.202;0.154;2022-12-29T04:23:13;99202.03;;;9.05;78.89
70407;BME280;57821;52.202;0.154;2022-12-29T04:25:40;99186.44;;;9.08;78.87
70407;BME280;57821;52.202;0.154;2022-12-29T04:28:08;99187.22;;;9.14;78.77
70407;BME280;57821;52.202;0.154;2022-12-29T04:30:47;99193.13;;;9.19;78.14
70407;BME280;57821;52.202;0.154;2022-12-29T04:33:18;99216.28;;;9.23;78.48
70407;BME280;57821;52.202;0.154;2022-12-29T04:35:45;99210.22;;;9.26;78.85
70407;BME280;57821;52.202;0.154;2022-12-29T04:38:13;99228.22;;;9.30;78.66
70407;BME280;57821;52.202;0.154;2022-12-29T04:40:42;99258.41;;;9.30;78.31
70407;BME280;57821;52.202;0.154;2022-12-29T04:43:10;99234.03;;;9.38;78.14
70407;BME280;57821;52.202;0.154;2022-12-29T04:45:56;99252.06;;;9.43;78.25
70407;BME280;57821;52.202;0.154;2022-12-29T04:48:27;99247.66;;;9.46;78.14
70407;BME280;57821;52.202;0.154;2022-12-29T04:51:07;99262.28;;;9.49;78.21
70407;BME280;57821;52.202;0.154;2022-12-29T04:53:38;99290.66;;;9.52;78.42
70407;BME280;57821;52.202;0.154;2022-12-29T04:56:05;99263.81;;;9.56;78.22
70407;BME280;57821;52.202;0.154;2022-12-29T04:58:32;99269.81;;;9.58;78.51
70407;BME280;57821;52.202;0.154;2022-12-29T05:00:59;99295.69;;;9.58;78.42
70407;BME280;57821;52.202;0.154;2022-12-29T05:03:28;99295.59;;;9.61;79.15
70407;BME280;57821;52.202;0.154;2022-12-29T05:05:56;99318.88;;;9.63;78.89
70407;BME280;57821;52.202;0.154;2022-12-29T05:08:23;99286.09;;;9.63;79.63
70407;BME280;57821;52.202;0.154;2022-12-29T05:10:56;99285.25;;;9.61;79.30
70407;BME280;57821;52.202;0.154;2022-12-29T05:13:23;99298.19;;;9.61;80.41
70407;BME280;57821;52.202;0.154;2022-12-29T05:15:50;99316.38;;;9.58;80.76
70407;BME280;57821;52.202;0.154;2022-12-29T05:18:18;99329.38;;;9.55;80.54
70407;BME280;57821;52.202;0.154;2022-12-29T05:20:46;99327.84;;;9.48;81.05
70407;BME280;57821;52.202;0.154;2022-12-29T05:23:13;99339.84;;;9.51;81.78
70407;BME280;57821;52.202;0.154;2022-12-29T05:25:41;99351.16;;;9.45;81.91
70407;BME280;57821;52.202;0.154;2022-12-29T05:28:14;99384.06;;;9.40;82.03
70407;BME280;57821;52.202;0.154;2022-12-29T05:30:48;99377.28;;;9.33;82.33
70407;BME280;57821;52.202;0.154;2022-12-29T05:33:17;99392.94;;;9.27;82.20
70407;BME280;57821;52.202;0.154;2022-12-29T05:35:45;99405.13;;;9.20;82.85
70407;BME280;57821;52.202;0.154;2022-12-29T05:38:12;99419.00;;;9.16;82.65
70407;BME280;57821;52.202;0.154;2022-12-29T05:40:39;99405.34;;;9.10;82.55
70407;BME280;57821;52.202;0.154;2022-12-29T05:43:17;99424.41;;;9.05;82.58
70407;BME280;57821;52.202;0.154;2022-12-29T05:46:10;99412.53;;;8.95;83.23
70407;BME280;57821;52.202;0.154;2022-12-29T05:49:00;99437.56;;;8.92;83.03
70407;BME280;57821;52.202;0.154;2022-12-29T05:51:45;99441.97;;;8.85;83.37
70407;BME280;57821;52.202;0.154;2022-12-29T05:54:12;99443.88;;;8.77;82.91
70407;BME280;57821;52.202;0.154;2022-12-29T05:56:40;99449.06;;;8.74;83.10
70407;BME280;57821;52.202;0.154;2022-12-29T05:59:07;99453.47;;;8.69;83.44
70407;BME280;57821;52.202;0.154;2022-12-29T06:01:35;99469.06;;;8.64;83.25
70407;BME280;57821;52.202;0.154;2022-12-29T06:04:01;99466.47;;;8.63;83.31
70407;BME280;57821;52.202;0.154;2022-12-29T06:06:28;99475.22;;;8.56;83.49
70407;BME280;57821;52.202;0.154;2022-12-29T06:08:55;99487.31;;;8.54;83.56
70407;BME280;57821;52.202;0.154;2022-12-29T06:11:22;99496.81;;;8.50;83.17
70407;BME280;57821;52.202;0.154;2022-12-29T06:13:53;99502.06;;;8.47;83.11
70407;BME280;57821;52.202;0.154;2022-12-29T06:16:22;99506.41;;;8.44;83.31
70407;BME280;57821;52.202;0.154;2022-12-29T06:18:52;99521.97;;;8.39;83.29
70407;BME280;57821;52.202;0.154;2022-12-29T06:21:19;99526.31;;;8.36;83.66
70407;BME280;57821;52.202;0.154;2022-12-29T06:23:45;99537.59;;;8.32;83.48
70407;BME280;57821;52.202;0.154;2022-12-29T06:26:12;99547.91;;;8.29;83.69
70407;BME280;57821;52.202;0.154;2022-12-29T06:28:39;99543.69;;;8.23;83.53
70407;BME280;57821;52.202;0.154;2022-12-29T06:31:09;99554.88;;;8.22;83.64
70407;BME280;57821;52.202;0.154;2022-12-29T06:33:35;99566.09;;;8.21;83.78
70407;BME280;57821;52.202;0.154;2022-12-29T06:36:03;99568.69;;;8.19;84.09
70407;BME280;57821;52.202;0.154;2022-12-29T06:38:29;99567.88;;;8.16;84.08
70407;BME280;57821;52.202;0.154;2022-12-29T06:40:57;99581.63;;;8.18;84.10
70407;BME280;57821;52.202;0.154;2022-12-29T06:43:24;99577.34;;;8.15;84.13
70407;BME280;57821;52.202;0.154;2022-12-29T06:46:18;99582.53;;;8.14;83.89
70407;BME280;57821;52.202;0.154;2022-12-29T06:48:45;99591.19;;;8.10;84.05
70407;BME280;57821;52.202;0.154;2022-12-29T06:51:11;99594.66;;;8.07;84.00
70407;BME280;57821;52.202;0.154;2022-12-29T06:53:38;99609.31;;;8.05;84.34
70407;BME280;57821;52.202;0.154;2022-12-29T06:56:04;99616.25;;;8.03;84.34
70407;BME280;57821;52.202;0.154;2022-12-29T06:58:31;99613.69;;;8.00;84.51
70407;BME280;57821;52.202;0.154;2022-12-29T07:00:58;99619.72;;;7.99;84.93
70407;BME280;57821;52.202;0.154;2022-12-29T07:03:25;99624.06;;;7.97;84.81
70407;BME280;57821;52.202;0.154;2022-12-29T07:05:51;99630.94;;;7.95;84.31
70407;BME280;57821;52.202;0.154;2022-12-29T07:08:18;99633.53;;;7.94;84.73
70407;BME280;57821;52.202;0.154;2022-12-29T07:10:45;99631.00;;;7.89;85.08
70407;BME280;57821;52.202;0.154;2022-12-29T07:13:11;99632.72;;;7.90;84.98
70407;BME280;57821;52.202;0.154;2022-12-29T07:15:38;99627.56;;;7.90;85.82
70407;BME280;57821;52.202;0.154;2022-12-29T07:18:05;99648.22;;;7.92;85.45
70407;BME280;57821;52.202;0.154;2022-12-29T07:20:31;99660.19;;;7.94;85.47
70407;BME280;57821;52.202;0.154;2022-12-29T07:22:58;99665.34;;;7.97;85.49
70407;BME280;57821;52.202;0.154;2022-12-29T07:25:24;99666.22;;;7.98;85.65
70407;BME280;57821;52.202;0.154;2022-12-29T07:27:51;99673.03;;;8.02;85.86
70407;BME280;57821;52.202;0.154;2022-12-29T07:30:17;99687.63;;;8.04;85.62
70407;BME280;57821;52.202;0.154;2022-12-29T07:32:44;99676.44;;;8.07;85.86
70407;BME280;57821;52.202;0.154;2022-12-29T07:35:10;99681.53;;;8.10;85.84
70407;BME280;57821;52.202;0.154;2022-12-29T07:37:37;99677.22;;;8.10;85.44
70407;BME280;57821;52.202;0.154;2022-12-29T07:40:04;99681.53;;;8.11;85.34
70407;BME280;57821;52.202;0.154;2022-12-29T07:42:31;99689.31;;;8.08;84.82
70407;BME280;57821;52.202;0.154;2022-12-29T07:44:58;99694.50;;;8.05;84.87
70407;BME280;57821;52.202;0.154;2022-12-29T07:47:29;99698.00;;;8.01;84.73
70407;BME280;57821;52.202;0.154;2022-12-29T07:49:56;99702.34;;;7.98;84.53
70407;BME280;57821;52.202;0.154;2022-12-29T07:52:22;99704.94;;;7.93;85.19
70407;BME280;57821;52.202;0.154;2022-12-29T07:54:49;99717.91;;;7.89;84.68
70407;BME280;57821;52.202;0.154;2022-12-29T07:57:15;99731.72;;;7.86;84.45
70407;BME280;57821;52.202;0.154;2022-12-29T07:59:42;99730.00;;;7.82;84.62
70407;BME280;57821;52.202;0.154;2022-12-29T08:02:10;99725.75;;;7.79;84.74
70407;BME280;57821;52.202;0.154;2022-12-29T08:04:37;99743.81;;;7.78;84.45
70407;BME280;57821;52.202;0.154;2022-12-29T08:07:03;99745.56;;;7.74;84.35
70407;BME280;57821;52.202;0.154;2022-12-29T08:09:30;99748.16;;;7.70;84.49
70407;BME280;57821;52.202;0.154;2022-12-29T08:11:56;99755.09;;;7.66;84.85
70407;BME280;57821;52.202;0.154;2022-12-29T08:14:23;99769.72;;;7.64;84.46
70407;BME280;57821;52.202;0.154;2022-12-29T08:16:49;99774.06;;;7.61;85.09
70407;BME280;57821;52.202;0.154;2022-12-29T08:19:16;99789.53;;;7.59;84.89
70407;BME280;57821;52.202;0.154;2022-12-29T08:21:42;99795.59;;;7.55;84.99
70407;BME280;57821;52.202;0.154;2022-12-29T08:24:09;99798.22;;;7.51;85.21
70407;BME280;57821;52.202;0.154;2022-12-29T08:26:36;99801.66;;;7.50;84.48
70407;BME280;57821;52.202;0.154;2022-12-29T08:29:02;99808.53;;;7.48;84.84
70407;BME280;57821;52.202;0.154;2022-12-29T08:31:29;99801.69;;;7.45;84.85
70407;BME280;57821;52.202;0.154;2022-12-29T08:33:55;99807.69;;;7.42;85.06
70407;BME280;57821;52.202;0.154;2022-12-29T08:36:22;99818.88;;;7.45;84.84
70407;BME280;57821;52.202;0.154;2022-12-29T08:38:49;99823.19;;;7.42;84.91
70407;BME280;57821;52.202;0.154;2022-12-29T08:41:15;99826.63;;;7.43;84.85
70407;BME280;57821;52.202;0.154;2022-12-29T08:43:46;99826.63;;;7.40;84.96
70407;BME280;57821;52.202;0.154;2022-12-29T08:46:12;99825.75;;;7.41;84.84
70407;BME280;57821;52.202;0.154;2022-12-29T08:48:39;99830.06;;;7.40;84.45
70407;BME280;57821;52.202;0.154;2022-12-29T08:51:05;99837.78;;;7.40;84.87
70407;BME280;57821;52.202;0.154;2022-12-29T08:53:32;99838.66;;;7.42;84.96
70407;BME280;57821;52.202;0.154;2022-12-29T08:55:59;99836.06;;;7.44;85.00
70407;BME280;57821;52.202;0.154;2022-12-29T08:58:39;99846.34;;;7.46;84.34
70407;BME280;57821;52.202;0.154;2022-12-29T09:01:06;99865.28;;;7.48;84.51
70407;BME280;57821;52.202;0.154;2022-12-29T09:03:33;99847.22;;;7.49;84.44
70407;BME280;57821;52.202;0.154;2022-12-29T09:06:20;99854.91;;;7.54;85.07
70407;BME280;57821;52.202;0.154;2022-12-29T09:08:46;99856.63;;;7.56;84.76
70407;BME280;57821;52.202;0.154;2022-12-29T09:11:20;99857.47;;;7.60;84.61
70407;BME280;57821;52.202;0.154;2022-12-29T09:13:47;99856.56;;;7.64;85.00
70407;BME280;57821;52.202;0.154;2022-12-29T09:16:15;99864.31;;;7.67;84.45
70407;BME280;57821;52.202;0.154;2022-12-29T09:18:42;99869.44;;;7.71;84.24
70407;BME280;57821;52.202;0.154;2022-12-29T09:21:09;99853.94;;;7.71;84.71
70407;BME280;57821;52.202;0.154;2022-12-29T09:23:36;99854.75;;;7.81;84.01
70407;BME280;57821;52.202;0.154;2022-12-29T09:26:03;99864.16;;;7.88;84.39
70407;BME280;57821;52.202;0.154;2022-12-29T09:28:30;99882.16;;;8.00;85.06
70407;BME280;57821;52.202;0.154;2022-12-29T09:30:57;99868.25;;;8.16;84.98
70407;BME280;57821;52.202;0.154;2022-12-29T09:33:24;99890.50;;;8.36;85.04
70407;BME280;57821;52.202;0.154;2022-12-29T09:35:54;99895.47;;;8.57;84.25
70407;BME280;57821;52.202;0.154;2022-12-29T09:38:20;99880.59;;;8.85;83.64
70407;BME280;57821;52.202;0.154;2022-12-29T09:40:53;99890.69;;;9.04;83.49
70407;BME280;57821;52.202;0.154;2022-12-29T09:46:24;99894.47;;;9.48;81.84
70407;BME280;57821;52.202;0.154;2022-12-29T09:51:50;99887.22;;;9.74;80.56
70407;BME280;57821;52.202;0.154;2022-12-29T09:57:35;99924.78;;;10.03;79.58
70407;BME280;57821;52.202;0.154;2022-12-29T10:02:41;99938.38;;;10.20;79.34
70407;BME280;57821;52.202;0.154;2022-12-29T10:10:56;99954.03;;;10.66;74.86
70407;BME280;57821;52.202;0.154;2022-12-29T10:13:31;99978.81;;;10.84;76.24
70407;BME280;57821;52.202;0.154;2022-12-29T10:16:18;99957.06;;;10.92;74.95
70407;BME280;57821;52.202;0.154;2022-12-29T10:18:57;99963.03;;;10.96;73.93
70407;BME280;57821;52.202;0.154;2022-12-29T10:24:21;99973.28;;;11.02;73.72
70407;BME280;57821;52.202;0.154;2022-12-29T10:26:51;99963.00;;;10.99;72.82
70407;BME280;57821;52.202;0.154;2022-12-29T10:29:26;99983.78;;;10.96;71.96
70407;BME280;57821;52.202;0.154;2022-12-29T10:31:59;99962.16;;;10.97;72.69
70407;BME280;57821;52.202;0.154;2022-12-29T10:34:36;99964.81;;;10.94;72.45
70407;BME280;57821;52.202;0.154;2022-12-29T10:37:29;99974.22;;;10.99;72.05
70407;BME280;57821;52.202;0.154;2022-12-29T10:40:09;99973.28;;;11.02;72.96
70407;BME280;57821;52.202;0.154;2022-12-29T10:42:46;99973.25;;;11.05;71.69
70407;BME280;57821;52.202;0.154;2022-12-29T10:45:16;99968.00;;;11.08;72.14
70407;BME280;57821;52.202;0.154;2022-12-29T10:48:08;99969.72;;;11.09;71.24
70407;BME280;57821;52.202;0.154;2022-12-29T10:50:36;99984.28;;;11.18;70.96
70407;BME280;57821;52.202;0.154;2022-12-29T10:53:04;99966.28;;;11.07;70.39
70407;BME280;57821;52.202;0.154;2022-12-29T10:55:35;99968.09;;;11.02;70.02
70407;BME280;57821;52.202;0.154;2022-12-29T10:58:04;99974.34;;;10.93;70.95
70407;BME280;57821;52.202;0.154;2022-12-29T11:00:32;99997.69;;;10.92;70.71
70407;BME280;57821;52.202;0.154;2022-12-29T11:08:27;99992.91;;;10.67;69.60
70407;BME280;57821;52.202;0.154;2022-12-29T11:11:02;99990.56;;;10.54;70.36
70407;BME280;57821;52.202;0.154;2022-12-29T11:13:32;99985.56;;;10.42;71.32
70407;BME280;57821;52.202;0.154;2022-12-29T11:16:04;99992.50;;;10.40;71.87
70407;BME280;57821;52.202;0.154;2022-12-29T11:18:33;99978.88;;;10.25;71.66
70407;BME280;57821;52.202;0.154;2022-12-29T11:21:02;100004.91;;;10.18;71.97
70407;BME280;57821;52.202;0.154;2022-12-29T11:28:38;100002.38;;;10.12;72.21
70407;BME280;57821;52.202;0.154;2022-12-29T11:31:07;100012.72;;;10.12;72.33
70407;BME280;57821;52.202;0.154;2022-12-29T11:33:36;100004.97;;;10.12;72.04
70407;BME280;57821;52.202;0.154;2022-12-29T11:36:22;100004.09;;;10.13;71.85
70407;BME280;57821;52.202;0.154;2022-12-29T11:38:52;100014.34;;;10.22;71.49
70407;BME280;57821;52.202;0.154;2022-12-29T11:41:24;100010.09;;;10.16;71.51
70407;BME280;57821;52.202;0.154;2022-12-29T11:43:53;100023.88;;;10.15;70.67
70407;BME280;57821;52.202;0.154;2022-12-29T11:46:30;100012.84;;;10.03;71.39
70407;BME280;57821;52.202;0.154;2022-12-29T11:48:59;100028.44;;;10.00;71.17
70407;BME280;57821;52.202;0.154;2022-12-29T11:51:30;100015.63;;;9.86;71.10
70407;BME280;57821;52.202;0.154;2022-12-29T11:53:58;100020.00;;;9.82;71.01
70407;BME280;57821;52.202;0.154;2022-12-29T11:56:40;100027.00;;;9.77;71.29
70407;BME280;57821;52.202;0.154;2022-12-29T12:01:57;100023.63;;;9.69;71.49
70407;BME280;57821;52.202;0.154;2022-12-29T12:04:28;100028.00;;;9.64;72.08
70407;BME280;57821;52.202;0.154;2022-12-29T12:07:07;100042.59;;;9.68;72.63
70407;BME280;57821;52.202;0.154;2022-12-29T12:12:24;100039.09;;;9.75;71.83
70407;BME280;57821;52.202;0.154;2022-12-29T12:14:56;100049.38;;;9.78;72.04
70407;BME280;57821;52.202;0.154;2022-12-29T12:20:55;100041.53;;;9.84;71.29
70407;BME280;57821;52.202;0.154;2022-12-29T12:23:36;100052.72;;;9.89;71.69
70407;BME280;57821;52.202;0.154;2022-12-29T12:26:28;100048.38;;;9.93;70.54
70407;BME280;57821;52.202;0.154;2022-12-29T12:28:59;100045.75;;;9.95;70.93
70407;BME280;57821;52.202;0.154;2022-12-29T12:31:49;100056.84;;;10.04;69.34
70407;BME280;57821;52.202;0.154;2022-12-29T12:34:35;100059.44;;;10.06;69.96
70407;BME280;57821;52.202;0.154;2022-12-29T12:37:19;100062.00;;;10.07;69.23
70407;BME280;57821;52.202;0.154;2022-12-29T12:51:43;100044.56;;;10.21;68.44
70407;BME280;57821;52.202;0.154;2022-12-29T12:54:24;100046.31;;;10.19;68.63
70407;BME280;57821;52.202;0.154;2022-12-29T13:02:40;100048.22;;;10.05;68.75
70407;BME280;57821;52.202;0.154;2022-12-29T13:05:50;100045.69;;;10.01;68.82
70407;BME280;57821;52.202;0.154;2022-12-29T13:08:39;100050.81;;;10.05;69.14
70407;BME280;57821;52.202;0.154;2022-12-29T13:14:14;100055.91;;;10.13;68.80
70407;BME280;57821;52.202;0.154;2022-12-29T13:16:48;100067.91;;;10.20;69.85
70407;BME280;57821;52.202;0.154;2022-12-29T13:19:26;100066.94;;;10.27;68.49
70407;BME280;57821;52.202;0.154;2022-12-29T13:28:09;100065.00;;;10.43;66.40
70407;BME280;57821;52.202;0.154;2022-12-29T13:30:48;100063.34;;;10.39;67.04
70407;BME280;57821;52.202;0.154;2022-12-29T13:38:34;100074.69;;;10.30;66.86
70407;BME280;57821;52.202;0.154;2022-12-29T13:41:27;100059.16;;;10.28;65.97
70407;BME280;57821;52.202;0.154;2022-12-29T13:43:57;100054.84;;;10.27;67.27
70407;BME280;57821;52.202;0.154;2022-12-29T13:46:31;100064.44;;;10.19;66.29
70407;BME280;57821;52.202;0.154;2022-12-29T13:49:05;100061.03;;;10.14;66.68
70407;BME280;57821;52.202;0.154;2022-12-29T13:51:33;100063.63;;;10.14;66.97
70407;BME280;57821;52.202;0.154;2022-12-29T13:54:10;100069.75;;;10.09;67.10
70407;BME280;57821;52.202;0.154;2022-12-29T13:56:49;100073.19;;;10.11;66.64
70407;BME280;57821;52.202;0.154;2022-12-29T13:59:48;100080.16;;;10.06;66.92
70407;BME280;57821;52.202;0.154;2022-12-29T14:07:48;100099.28;;;9.93;66.81
70407;BME280;57821;52.202;0.154;2022-12-29T14:10:35;100103.69;;;9.86;66.26
70407;BME280;57821;52.202;0.154;2022-12-29T14:13:11;100090.88;;;9.74;66.25
70407;BME280;57821;52.202;0.154;2022-12-29T14:15:44;100092.66;;;9.69;66.95
70407;BME280;57821;52.202;0.154;2022-12-29T14:18:16;100097.88;;;9.66;66.63
70407;BME280;57821;52.202;0.154;2022-12-29T14:20:47;100098.75;;;9.63;66.07
70407;BME280;57821;52.202;0.154;2022-12-29T14:23:26;100106.63;;;9.51;67.26
70407;BME280;57821;52.202;0.154;2022-12-29T14:28:32;100097.19;;;9.44;67.52
70407;BME280;57821;52.202;0.154;2022-12-29T14:31:03;100111.97;;;9.36;67.55
70407;BME280;57821;52.202;0.154;2022-12-29T14:33:31;100115.50;;;9.26;67.85
70407;BME280;57821;52.202;0.154;2022-12-29T14:36:21;100114.69;;;9.18;67.53
70407;BME280;57821;52.202;0.154;2022-12-29T14:38:50;100120.78;;;9.12;68.24
70407;BME280;57821;52.202;0.154;2022-12-29T14:44:17;100128.63;;;8.97;68.39
70407;BME280;57821;52.202;0.154;2022-12-29T14:46:47;100124.41;;;8.90;68.35
70407;BME280;57821;52.202;0.154;2022-12-29T14:49:19;100129.56;;;8.87;67.86
70407;BME280;57821;52.202;0.154;2022-12-29T14:51:47;100143.41;;;8.81;68.41
70407;BME280;57821;52.202;0.154;2022-12-29T14:54:45;100137.41;;;8.75;68.69
70407;BME280;57821;52.202;0.154;2022-12-29T14:57:33;100141.78;;;8.62;68.55
70407;BME280;57821;52.202;0.154;2022-12-29T15:00:14;100132.38;;;8.55;68.96
70407;BME280;57821;52.202;0.154;2022-12-29T15:02:49;100141.00;;;8.49;69.18
70407;BME280;57821;52.202;0.154;2022-12-29T15:05:27;100149.63;;;8.48;69.47
70407;BME280;57821;52.202;0.154;2022-12-29T15:07:56;100139.31;;;8.39;69.69
70407;BME280;57821;52.202;0.154;2022-12-29T15:10:23;100153.97;;;8.39;69.86
70407;BME280;57821;52.202;0.154;2022-12-29T15:12:53;100156.56;;;8.28;70.43
70407;BME280;57821;52.202;0.154;2022-12-29T15:15:26;100172.91;;;8.29;70.46
70407;BME280;57821;52.202;0.154;2022-12-29T15:17:53;100184.13;;;8.26;70.73
70407;BME280;57821;52.202;0.154;2022-12-29T15:20:29;100179.84;;;8.17;71.28